sensor_id;sensor_type;location;lat;lon;timestamp;pressure;altitude;pressure_sealevel;temperature;humidity
73455;BME280;61690;51.824;6.306;2023-05-20T00:00:19;102325.94;;;19.03;46.56
73455;BME280;61690;51.824;6.306;2023-05-20T00:02:44;102318.94;;;19.02;47.07
73455;BME280;61690;51.824;6.306;2023-05-20T00:05:10;102322.44;;;19.03;47.02
73455;BME280;61690;51.824;6.306;2023-05-20T00:07:35;102330.44;;;19.01;46.98
73455;BME280;61690;51.824;6.306;2023-05-20T00:10:00;102333.06;;;19.01;47.36
73455;BME280;61690;51.824;6.306;2023-05-20T00:12:25;102333.91;;;19.02;47.07
73455;BME280;61690;51.824;6.306;2023-05-20T00:14:51;102329.47;;;19.02;46.83
73455;BME280;61690;51.824;6.306;2023-05-20T00:17:16;102318.16;;;19.00;47.34
73455;BME280;61690;51.824;6.306;2023-05-20T00:19:41;102321.72;;;18.99;47.37
73455;BME280;61690;51.824;6.306;2023-05-20T00:22:07;102327.84;;;18.99;47.08
73455;BME280;61690;51.824;6.306;2023-05-20T00:24:32;102325.22;;;18.99;47.22
73455;BME280;61690;51.824;6.306;2023-05-20T00:26:57;102320.94;;;18.97;47.12
73455;BME280;61690;51.824;6.306;2023-05-20T00:29:23;102325.22;;;18.99;47.47
73455;BME280;61690;51.824;6.306;2023-05-20T00:31:48;102322.63;;;18.98;47.58
73455;BME280;61690;51.824;6.306;2023-05-20T00:34:13;102324.38;;;18.99;47.16
73455;BME280;61690;51.824;6.306;2023-05-20T00:36:38;102320.00;;;18.98;47.34
73455;BME280;61690;51.824;6.306;2023-05-20T00:39:04;102320.94;;;18.97;47.50
73455;BME280;61690;51.824;6.306;2023-05-20T00:41:29;102316.50;;;18.97;47.41
73455;BME280;61690;51.824;6.306;2023-05-20T00:43:55;102307.81;;;18.95;47.44
73455;BME280;61690;51.824;6.306;2023-05-20T00:46:22;102314.88;;;18.95;47.68
73455;BME280;61690;51.824;6.306;2023-05-20T00:48:48;102302.47;;;18.97;47.27
73455;BME280;61690;51.824;6.306;2023-05-20T00:51:14;102314.88;;;18.95;47.46
73455;BME280;61690;51.824;6.306;2023-05-20T00:53:40;102316.56;;;18.96;47.56
73455;BME280;61690;51.824;6.306;2023-05-20T00:56:06;102315.66;;;18.97;47.67
73455;BME280;61690;51.824;6.306;2023-05-20T00:58:32;102315.66;;;18.97;47.37
73455;BME280;61690;51.824;6.306;2023-05-20T01:00:57;102307.88;;;18.94;47.84
73455;BME280;61690;51.824;6.306;2023-05-20T01:03:23;102302.59;;;18.94;47.89
73455;BME280;61690;51.824;6.306;2023-05-20T01:05:48;102310.53;;;18.94;47.38
73455;BME280;61690;51.824;6.306;2023-05-20T01:08:13;102305.31;;;18.92;47.83
73455;BME280;61690;51.824;6.306;2023-05-20T01:10:41;102308.81;;;18.93;47.76
73455;BME280;61690;51.824;6.306;2023-05-20T01:13:15;102308.81;;;18.93;47.78
73455;BME280;61690;51.824;6.306;2023-05-20T01:15:43;102311.53;;;18.91;47.49
73455;BME280;61690;51.824;6.306;2023-05-20T01:18:10;102314.09;;;18.93;47.68
73455;BME280;61690;51.824;6.306;2023-05-20T01:20:43;102308.81;;;18.93;47.57
73455;BME280;61690;51.824;6.306;2023-05-20T01:23:10;102305.41;;;18.91;47.37
73455;BME280;61690;51.824;6.306;2023-05-20T01:25:35;102303.66;;;18.90;47.26
73455;BME280;61690;51.824;6.306;2023-05-20T01:28:01;102306.38;;;18.88;47.38
73455;BME280;61690;51.824;6.306;2023-05-20T01:30:29;102310.69;;;18.91;47.59
73455;BME280;61690;51.824;6.306;2023-05-20T01:33:00;102307.16;;;18.90;47.75
73455;BME280;61690;51.824;6.306;2023-05-20T01:35:27;102308.09;;;18.89;47.80
73455;BME280;61690;51.824;6.306;2023-05-20T01:37:52;102308.94;;;18.90;47.47
73455;BME280;61690;51.824;6.306;2023-05-20T01:40:20;102309.94;;;18.87;47.69
73455;BME280;61690;51.824;6.306;2023-05-20T01:42:46;102299.47;;;18.86;47.50
73455;BME280;61690;51.824;6.306;2023-05-20T01:45:17;102295.75;;;18.90;48.13
73455;BME280;61690;51.824;6.306;2023-05-20T01:47:44;102294.84;;;18.91;48.82
73455;BME280;61690;51.824;6.306;2023-05-20T01:50:09;102300.13;;;18.91;48.20
73455;BME280;61690;51.824;6.306;2023-05-20T01:52:35;102294.84;;;18.91;48.00
73455;BME280;61690;51.824;6.306;2023-05-20T01:55:00;102300.13;;;18.91;48.75
73455;BME280;61690;51.824;6.306;2023-05-20T01:57:25;102291.28;;;18.92;48.73
73455;BME280;61690;51.824;6.306;2023-05-20T01:59:51;102296.53;;;18.92;48.92
73455;BME280;61690;51.824;6.306;2023-05-20T02:02:16;102288.63;;;18.92;48.85
73455;BME280;61690;51.824;6.306;2023-05-20T02:04:43;102285.22;;;18.90;48.94
73455;BME280;61690;51.824;6.306;2023-05-20T02:07:12;102284.31;;;18.91;49.00
73455;BME280;61690;51.824;6.306;2023-05-20T02:09:37;102290.50;;;18.90;48.68
73455;BME280;61690;51.824;6.306;2023-05-20T02:12:03;102286.94;;;18.91;48.51
73455;BME280;61690;51.824;6.306;2023-05-20T02:14:28;102287.84;;;18.90;48.59
73455;BME280;61690;51.824;6.306;2023-05-20T02:16:53;102282.56;;;18.90;48.71
73455;BME280;61690;51.824;6.306;2023-05-20T02:19:19;102290.50;;;18.90;48.64
73455;BME280;61690;51.824;6.306;2023-05-20T02:21:48;102284.38;;;18.89;48.69
73455;BME280;61690;51.824;6.306;2023-05-20T02:24:13;102278.22;;;18.89;48.59
73455;BME280;61690;51.824;6.306;2023-05-20T02:26:39;102280.84;;;18.89;48.37
73455;BME280;61690;51.824;6.306;2023-05-20T02:29:04;102280.84;;;18.89;48.19
73455;BME280;61690;51.824;6.306;2023-05-20T02:31:29;102273.88;;;18.88;48.09
73455;BME280;61690;51.824;6.306;2023-05-20T02:33:55;102276.53;;;18.88;48.27
73455;BME280;61690;51.824;6.306;2023-05-20T02:36:20;102273.88;;;18.88;48.50
73455;BME280;61690;51.824;6.306;2023-05-20T02:38:45;102278.38;;;18.86;48.32
73455;BME280;61690;51.824;6.306;2023-05-20T02:41:11;102276.59;;;18.86;48.41
73455;BME280;61690;51.824;6.306;2023-05-20T02:43:36;102270.47;;;18.86;47.98
73455;BME280;61690;51.824;6.306;2023-05-20T02:46:02;102277.44;;;18.87;48.07
73455;BME280;61690;51.824;6.306;2023-05-20T02:48:27;102275.75;;;18.86;48.35
73455;BME280;61690;51.824;6.306;2023-05-20T02:50:53;102277.53;;;18.85;47.97
73455;BME280;61690;51.824;6.306;2023-05-20T02:53:18;102276.66;;;18.85;48.14
73455;BME280;61690;51.824;6.306;2023-05-20T02:55:45;102281.91;;;18.85;47.91
73455;BME280;61690;51.824;6.306;2023-05-20T02:58:11;102276.66;;;18.85;48.30
73455;BME280;61690;51.824;6.306;2023-05-20T03:00:37;102271.47;;;18.83;48.37
73455;BME280;61690;51.824;6.306;2023-05-20T03:03:08;102277.59;;;18.84;48.32
73455;BME280;61690;51.824;6.306;2023-05-20T03:05:34;102271.47;;;18.83;48.03
73455;BME280;61690;51.824;6.306;2023-05-20T03:08:05;102274.09;;;18.83;48.22
73455;BME280;61690;51.824;6.306;2023-05-20T03:10:30;102273.16;;;18.84;48.27
73455;BME280;61690;51.824;6.306;2023-05-20T03:12:55;102272.38;;;18.82;47.97
73455;BME280;61690;51.824;6.306;2023-05-20T03:15:21;102267.16;;;18.80;48.04
73455;BME280;61690;51.824;6.306;2023-05-20T03:17:46;102274.16;;;18.82;47.91
73455;BME280;61690;51.824;6.306;2023-05-20T03:20:12;102268.91;;;18.82;48.13
73455;BME280;61690;51.824;6.306;2023-05-20T03:22:37;102271.59;;;18.80;47.80
73455;BME280;61690;51.824;6.306;2023-05-20T03:25:03;102275.88;;;18.83;48.13
73455;BME280;61690;51.824;6.306;2023-05-20T03:27:30;102273.28;;;18.81;48.01
73455;BME280;61690;51.824;6.306;2023-05-20T03:29:56;102268.00;;;18.81;48.24
73455;BME280;61690;51.824;6.306;2023-05-20T03:32:21;102270.72;;;18.79;47.79
73455;BME280;61690;51.824;6.306;2023-05-20T03:34:46;102272.56;;;18.77;48.21
73455;BME280;61690;51.824;6.306;2023-05-20T03:37:12;102269.94;;;18.77;48.19
73455;BME280;61690;51.824;6.306;2023-05-20T03:39:37;102269.03;;;18.77;48.01
73455;BME280;61690;51.824;6.306;2023-05-20T03:42:02;102268.13;;;18.78;48.18
73455;BME280;61690;51.824;6.306;2023-05-20T03:44:27;102265.56;;;18.76;48.00
73455;BME280;61690;51.824;6.306;2023-05-20T03:46:53;102274.31;;;18.77;48.15
73455;BME280;61690;51.824;6.306;2023-05-20T03:49:18;102266.41;;;18.77;47.95
73455;BME280;61690;51.824;6.306;2023-05-20T03:51:43;102269.09;;;18.75;48.39
73455;BME280;61690;51.824;6.306;2023-05-20T03:54:08;102263.84;;;18.75;47.58
73455;BME280;61690;51.824;6.306;2023-05-20T03:56:34;102269.09;;;18.75;48.09
73455;BME280;61690;51.824;6.306;2023-05-20T03:59:00;102274.38;;;18.75;48.06
73455;BME280;61690;51.824;6.306;2023-05-20T04:01:26;102269.09;;;18.75;47.81
73455;BME280;61690;51.824;6.306;2023-05-20T04:03:51;102269.09;;;18.75;47.66
73455;BME280;61690;51.824;6.306;2023-05-20T04:06:16;102273.53;;;18.75;48.10
73455;BME280;61690;51.824;6.306;2023-05-20T04:08:41;102269.09;;;18.75;47.80
73455;BME280;61690;51.824;6.306;2023-05-20T04:11:07;102273.53;;;18.75;47.86
73455;BME280;61690;51.824;6.306;2023-05-20T04:13:32;102273.53;;;18.75;47.62
73455;BME280;61690;51.824;6.306;2023-05-20T04:15:57;102278.75;;;18.76;47.89
73455;BME280;61690;51.824;6.306;2023-05-20T04:18:24;102272.63;;;18.76;47.78
73455;BME280;61690;51.824;6.306;2023-05-20T04:20:53;102272.63;;;18.76;47.87
73455;BME280;61690;51.824;6.306;2023-05-20T04:23:20;102275.25;;;18.76;47.50
73455;BME280;61690;51.824;6.306;2023-05-20T04:25:45;102271.69;;;18.77;47.49
73455;BME280;61690;51.824;6.306;2023-05-20T04:28:11;102275.19;;;18.77;47.95
73455;BME280;61690;51.824;6.306;2023-05-20T04:30:38;102274.38;;;18.75;47.67
73455;BME280;61690;51.824;6.306;2023-05-20T04:33:03;102276.09;;;18.76;47.73
73455;BME280;61690;51.824;6.306;2023-05-20T04:35:28;102278.88;;;18.73;47.76
73455;BME280;61690;51.824;6.306;2023-05-20T04:37:54;102282.44;;;18.72;47.82
73455;BME280;61690;51.824;6.306;2023-05-20T04:40:20;102280.66;;;18.73;47.76
73455;BME280;61690;51.824;6.306;2023-05-20T04:42:45;102280.66;;;18.73;47.87
73455;BME280;61690;51.824;6.306;2023-05-20T04:45:11;102286.66;;;18.76;47.92
73455;BME280;61690;51.824;6.306;2023-05-20T04:47:37;102283.09;;;18.77;47.77
73455;BME280;61690;51.824;6.306;2023-05-20T04:50:08;102288.38;;;18.77;48.01
73455;BME280;61690;51.824;6.306;2023-05-20T04:52:38;102290.06;;;18.78;47.87
73455;BME280;61690;51.824;6.306;2023-05-20T04:55:05;102287.44;;;18.78;48.01
73455;BME280;61690;51.824;6.306;2023-05-20T04:57:30;102288.28;;;18.79;47.84
73455;BME280;61690;51.824;6.306;2023-05-20T04:59:58;102286.53;;;18.79;47.82
73455;BME280;61690;51.824;6.306;2023-05-20T05:02:24;102283.00;;;18.79;48.13
73455;BME280;61690;51.824;6.306;2023-05-20T05:04:49;102289.16;;;18.79;47.94
73455;BME280;61690;51.824;6.306;2023-05-20T05:07:15;102282.13;;;18.80;48.16
73455;BME280;61690;51.824;6.306;2023-05-20T05:09:40;102275.97;;;18.79;47.72
73455;BME280;61690;51.824;6.306;2023-05-20T05:12:05;102276.88;;;18.80;47.54
73455;BME280;61690;51.824;6.306;2023-05-20T05:14:31;102278.56;;;18.81;47.67
73455;BME280;61690;51.824;6.306;2023-05-20T05:16:56;102282.13;;;18.80;47.94
73455;BME280;61690;51.824;6.306;2023-05-20T05:19:22;102277.84;;;18.77;47.99
73455;BME280;61690;51.824;6.306;2023-05-20T05:21:47;102277.72;;;18.80;47.52
73455;BME280;61690;51.824;6.306;2023-05-20T05:24:12;102269.94;;;18.77;48.07
73455;BME280;61690;51.824;6.306;2023-05-20T05:26:38;102269.81;;;18.80;48.13
73455;BME280;61690;51.824;6.306;2023-05-20T05:29:03;102267.19;;;18.79;47.85
73455;BME280;61690;51.824;6.306;2023-05-20T05:31:28;102272.44;;;18.80;47.81
73455;BME280;61690;51.824;6.306;2023-05-20T05:33:53;102269.94;;;18.77;47.92
73455;BME280;61690;51.824;6.306;2023-05-20T05:36:19;102265.44;;;18.79;47.86
73455;BME280;61690;51.824;6.306;2023-05-20T05:38:44;102268.00;;;18.81;47.91
73455;BME280;61690;51.824;6.306;2023-05-20T05:41:09;102268.97;;;18.80;47.63
73455;BME280;61690;51.824;6.306;2023-05-20T05:43:35;102269.81;;;18.80;47.63
73455;BME280;61690;51.824;6.306;2023-05-20T05:46:00;102276.81;;;18.82;47.67
73455;BME280;61690;51.824;6.306;2023-05-20T05:48:29;102269.75;;;18.82;48.12
73455;BME280;61690;51.824;6.306;2023-05-20T05:50:54;102269.75;;;18.82;47.82
73455;BME280;61690;51.824;6.306;2023-05-20T05:53:20;102275.88;;;18.83;48.14
73455;BME280;61690;51.824;6.306;2023-05-20T05:55:45;102271.53;;;18.82;47.96
73455;BME280;61690;51.824;6.306;2023-05-20T05:58:11;102264.41;;;18.84;47.80
73455;BME280;61690;51.824;6.306;2023-05-20T06:00:37;102267.88;;;18.84;48.08
73455;BME280;61690;51.824;6.306;2023-05-20T06:03:11;102260.03;;;18.83;47.82
73455;BME280;61690;51.824;6.306;2023-05-20T06:05:37;102261.78;;;18.84;48.02
73455;BME280;61690;51.824;6.306;2023-05-20T06:08:02;102261.78;;;18.84;48.14
73455;BME280;61690;51.824;6.306;2023-05-20T06:10:27;102262.63;;;18.84;48.11
73455;BME280;61690;51.824;6.306;2023-05-20T06:12:53;102262.56;;;18.86;48.01
73455;BME280;61690;51.824;6.306;2023-05-20T06:15:21;102252.84;;;18.86;48.51
73455;BME280;61690;51.824;6.306;2023-05-20T06:17:47;102260.75;;;18.86;48.55
73455;BME280;61690;51.824;6.306;2023-05-20T06:20:12;102259.84;;;18.87;48.39
73455;BME280;61690;51.824;6.306;2023-05-20T06:22:37;102254.66;;;18.86;48.75
73455;BME280;61690;51.824;6.306;2023-05-20T06:25:03;102252.84;;;18.86;48.76
73455;BME280;61690;51.824;6.306;2023-05-20T06:27:28;102251.06;;;18.87;48.08
73455;BME280;61690;51.824;6.306;2023-05-20T06:29:53;102252.78;;;18.88;48.49
73455;BME280;61690;51.824;6.306;2023-05-20T06:32:28;102251.84;;;18.89;48.69
73455;BME280;61690;51.824;6.306;2023-05-20T06:34:53;102240.53;;;18.87;48.72
73455;BME280;61690;51.824;6.306;2023-05-20T06:37:18;102245.66;;;18.90;48.47
73455;BME280;61690;51.824;6.306;2023-05-20T06:39:44;102252.66;;;18.91;48.66
73455;BME280;61690;51.824;6.306;2023-05-20T06:42:11;102242.97;;;18.91;48.43
73455;BME280;61690;51.824;6.306;2023-05-20T06:44:36;102237.88;;;18.87;48.55
73455;BME280;61690;51.824;6.306;2023-05-20T06:47:02;102235.25;;;18.87;48.32
73455;BME280;61690;51.824;6.306;2023-05-20T06:49:27;102240.41;;;18.90;48.10
73455;BME280;61690;51.824;6.306;2023-05-20T06:51:52;102238.66;;;18.89;48.48
73455;BME280;61690;51.824;6.306;2023-05-20T06:54:18;102233.28;;;18.92;48.32
73455;BME280;61690;51.824;6.306;2023-05-20T06:56:43;102223.50;;;18.94;48.71
73455;BME280;61690;51.824;6.306;2023-05-20T06:59:09;102231.78;;;19.05;48.49
73455;BME280;61690;51.824;6.306;2023-05-20T07:01:34;102227.34;;;19.06;48.97
73455;BME280;61690;51.824;6.306;2023-05-20T07:03:59;102225.44;;;19.09;48.56
73455;BME280;61690;51.824;6.306;2023-05-20T07:06:25;102221.16;;;19.07;48.25
73455;BME280;61690;51.824;6.306;2023-05-20T07:08:50;102216.88;;;19.04;48.59
73455;BME280;61690;51.824;6.306;2023-05-20T07:11:15;102222.25;;;19.03;48.99
73455;BME280;61690;51.824;6.306;2023-05-20T07:13:40;102222.31;;;19.01;48.47
73455;BME280;61690;51.824;6.306;2023-05-20T07:16:06;102216.09;;;19.02;48.47
73455;BME280;61690;51.824;6.306;2023-05-20T07:18:40;102220.44;;;19.03;48.58
73455;BME280;61690;51.824;6.306;2023-05-20T07:21:05;102220.44;;;19.03;48.74
73455;BME280;61690;51.824;6.306;2023-05-20T07:23:30;102209.06;;;19.03;48.79
73455;BME280;61690;51.824;6.306;2023-05-20T07:25:56;102207.19;;;19.05;48.58
73455;BME280;61690;51.824;6.306;2023-05-20T07:28:21;102215.97;;;19.05;48.78
73455;BME280;61690;51.824;6.306;2023-05-20T07:30:47;102213.31;;;19.05;48.40
73455;BME280;61690;51.824;6.306;2023-05-20T07:33:17;102208.03;;;19.05;48.35
73455;BME280;61690;51.824;6.306;2023-05-20T07:35:43;102204.56;;;19.05;48.51
73455;BME280;61690;51.824;6.306;2023-05-20T07:38:10;102206.19;;;19.07;48.59
73455;BME280;61690;51.824;6.306;2023-05-20T07:40:37;102202.66;;;19.08;48.58
73455;BME280;61690;51.824;6.306;2023-05-20T07:43:05;102197.38;;;19.08;48.65
73455;BME280;61690;51.824;6.306;2023-05-20T07:45:34;102191.31;;;19.06;48.48
73455;BME280;61690;51.824;6.306;2023-05-20T07:48:05;102187.72;;;19.07;48.47
73455;BME280;61690;51.824;6.306;2023-05-20T07:50:32;102192.09;;;19.08;48.81
73455;BME280;61690;51.824;6.306;2023-05-20T07:52:58;102193.50;;;19.15;48.51
73455;BME280;61690;51.824;6.306;2023-05-20T07:55:23;102188.88;;;19.20;48.21
73455;BME280;61690;51.824;6.306;2023-05-20T07:57:56;102182.81;;;19.18;48.76
73455;BME280;61690;51.824;6.306;2023-05-20T08:00:27;102181.91;;;19.19;48.42
73455;BME280;61690;51.824;6.306;2023-05-20T08:02:52;102176.63;;;19.19;48.33
73455;BME280;61690;51.824;6.306;2023-05-20T08:05:18;102170.41;;;19.20;48.55
73455;BME280;61690;51.824;6.306;2023-05-20T08:07:43;102184.38;;;19.23;48.54
73455;BME280;61690;51.824;6.306;2023-05-20T08:10:09;102178.19;;;19.24;48.90
73455;BME280;61690;51.824;6.306;2023-05-20T08:12:41;102182.66;;;19.22;48.62
73455;BME280;61690;51.824;6.306;2023-05-20T08:15:06;102176.44;;;19.23;49.06
73455;BME280;61690;51.824;6.306;2023-05-20T08:17:32;102184.38;;;19.23;48.74
73455;BME280;61690;51.824;6.306;2023-05-20T08:19:57;102170.34;;;19.22;49.00
73455;BME280;61690;51.824;6.306;2023-05-20T08:22:23;102174.59;;;19.25;49.07
73455;BME280;61690;51.824;6.306;2023-05-20T08:24:48;102171.81;;;19.28;48.96
73455;BME280;61690;51.824;6.306;2023-05-20T08:27:13;102173.50;;;19.29;48.71
73455;BME280;61690;51.824;6.306;2023-05-20T08:29:39;102173.63;;;19.27;48.98
73455;BME280;61690;51.824;6.306;2023-05-20T08:32:04;102183.22;;;19.28;48.62
73455;BME280;61690;51.824;6.306;2023-05-20T08:34:30;102174.38;;;19.29;49.31
73455;BME280;61690;51.824;6.306;2023-05-20T08:36:55;102168.09;;;19.32;48.80
73455;BME280;61690;51.824;6.306;2023-05-20T08:39:21;102168.25;;;19.29;48.94
73455;BME280;61690;51.824;6.306;2023-05-20T08:41:47;102167.38;;;19.28;49.03
73455;BME280;61690;51.824;6.306;2023-05-20T08:44:12;102169.13;;;19.29;48.79
73455;BME280;61690;51.824;6.306;2023-05-20T08:46:38;102165.53;;;19.30;48.76
73455;BME280;61690;51.824;6.306;2023-05-20T08:49:04;102161.88;;;19.33;49.04
73455;BME280;61690;51.824;6.306;2023-05-20T08:51:32;102175.16;;;19.31;48.70
73455;BME280;61690;51.824;6.306;2023-05-20T08:54:01;102173.25;;;19.35;48.52
73455;BME280;61690;51.824;6.306;2023-05-20T08:56:47;102161.75;;;19.36;48.92
73455;BME280;61690;51.824;6.306;2023-05-20T08:59:12;102166.09;;;19.37;48.75
73455;BME280;61690;51.824;6.306;2023-05-20T09:01:40;102155.56;;;19.37;48.96
73455;BME280;61690;51.824;6.306;2023-05-20T09:04:07;102164.25;;;19.39;48.78
73455;BME280;61690;51.824;6.306;2023-05-20T09:06:42;102158.97;;;19.39;48.65
73455;BME280;61690;51.824;6.306;2023-05-20T09:09:10;102149.41;;;19.36;48.60
73455;BME280;61690;51.824;6.306;2023-05-20T09:11:35;102159.09;;;19.36;48.65
73455;BME280;61690;51.824;6.306;2023-05-20T09:14:01;102148.41;;;19.39;48.34
73455;BME280;61690;51.824;6.306;2023-05-20T09:16:26;102158.97;;;19.39;48.14
73455;BME280;61690;51.824;6.306;2023-05-20T09:18:56;102155.31;;;19.42;48.60
73455;BME280;61690;51.824;6.306;2023-05-20T09:21:28;102155.31;;;19.42;48.33
73455;BME280;61690;51.824;6.306;2023-05-20T09:23:55;102149.13;;;19.43;48.67
73455;BME280;61690;51.824;6.306;2023-05-20T09:26:25;102158.59;;;19.47;48.64
73455;BME280;61690;51.824;6.306;2023-05-20T09:28:50;102143.53;;;19.49;48.65
73455;BME280;61690;51.824;6.306;2023-05-20T09:31:16;102149.66;;;19.49;48.33
73455;BME280;61690;51.824;6.306;2023-05-20T09:33:50;102140.91;;;19.49;48.56
73455;BME280;61690;51.824;6.306;2023-05-20T09:36:16;102143.38;;;19.52;48.47
73455;BME280;61690;51.824;6.306;2023-05-20T09:38:44;102145.00;;;19.54;48.29
73455;BME280;61690;51.824;6.306;2023-05-20T09:41:11;102147.78;;;19.51;48.42
73455;BME280;61690;51.824;6.306;2023-05-20T09:43:38;102131.97;;;19.51;48.13
73455;BME280;61690;51.824;6.306;2023-05-20T09:46:04;102132.81;;;19.52;48.34
73455;BME280;61690;51.824;6.306;2023-05-20T09:48:36;102137.25;;;19.51;48.41
73455;BME280;61690;51.824;6.306;2023-05-20T09:51:03;102138.19;;;19.50;48.35
73455;BME280;61690;51.824;6.306;2023-05-20T09:53:29;102139.03;;;19.51;48.30
73455;BME280;61690;51.824;6.306;2023-05-20T09:55:54;102143.38;;;19.52;48.37
73455;BME280;61690;51.824;6.306;2023-05-20T09:58:22;102147.72;;;19.53;48.21
73455;BME280;61690;51.824;6.306;2023-05-20T10:00:48;102134.53;;;19.53;48.01
73455;BME280;61690;51.824;6.306;2023-05-20T10:03:14;102138.88;;;19.54;48.23
73455;BME280;61690;51.824;6.306;2023-05-20T10:05:44;102137.94;;;19.55;48.05
73455;BME280;61690;51.824;6.306;2023-05-20T10:08:25;102139.75;;;19.54;48.07
73455;BME280;61690;51.824;6.306;2023-05-20T10:14:08;102126.38;;;19.57;48.28
73455;BME280;61690;51.824;6.306;2023-05-20T10:16:52;102127.25;;;19.58;47.95
73455;BME280;61690;51.824;6.306;2023-05-20T10:21:43;102112.25;;;19.58;48.18
73455;BME280;61690;51.824;6.306;2023-05-20T10:24:09;102114.91;;;19.58;47.92
73455;BME280;61690;51.824;6.306;2023-05-20T10:26:41;102118.31;;;19.61;48.09
73455;BME280;61690;51.824;6.306;2023-05-20T10:29:14;102117.38;;;19.62;48.03
73455;BME280;61690;51.824;6.306;2023-05-20T10:31:51;102124.38;;;19.63;47.93
73455;BME280;61690;51.824;6.306;2023-05-20T10:34:18;102120.81;;;19.64;47.74
73455;BME280;61690;51.824;6.306;2023-05-20T10:36:56;102114.66;;;19.63;47.85
73455;BME280;61690;51.824;6.306;2023-05-20T10:39:27;102111.94;;;19.65;47.80
73455;BME280;61690;51.824;6.306;2023-05-20T10:42:04;102103.09;;;19.66;47.75
73455;BME280;61690;51.824;6.306;2023-05-20T10:44:46;102100.34;;;19.67;47.67
73455;BME280;61690;51.824;6.306;2023-05-20T10:47:12;102101.25;;;19.68;47.70
73455;BME280;61690;51.824;6.306;2023-05-20T10:49:43;102106.50;;;19.68;47.97
73455;BME280;61690;51.824;6.306;2023-05-20T10:52:10;102112.56;;;19.70;47.79
73455;BME280;61690;51.824;6.306;2023-05-20T10:54:54;102099.38;;;19.70;48.02
73455;BME280;61690;51.824;6.306;2023-05-20T10:57:20;102110.75;;;19.72;47.50
73455;BME280;61690;51.824;6.306;2023-05-20T10:59:46;102105.47;;;19.72;47.66
73455;BME280;61690;51.824;6.306;2023-05-20T11:02:14;102104.50;;;19.73;47.95
73455;BME280;61690;51.824;6.306;2023-05-20T11:04:41;102110.66;;;19.73;47.57
73455;BME280;61690;51.824;6.306;2023-05-20T11:07:07;102107.00;;;19.76;47.93
73455;BME280;61690;51.824;6.306;2023-05-20T11:09:48;102097.34;;;19.75;47.71
73455;BME280;61690;51.824;6.306;2023-05-20T11:12:14;102095.50;;;19.77;47.90
73455;BME280;61690;51.824;6.306;2023-05-20T11:14:39;102098.13;;;19.77;47.85
73455;BME280;61690;51.824;6.306;2023-05-20T11:17:06;102084.94;;;19.77;47.83
73455;BME280;61690;51.824;6.306;2023-05-20T11:19:32;102083.25;;;19.76;47.85
73455;BME280;61690;51.824;6.306;2023-05-20T11:22:06;102084.00;;;19.78;47.64
73455;BME280;61690;51.824;6.306;2023-05-20T11:24:32;102078.72;;;19.78;47.56
73455;BME280;61690;51.824;6.306;2023-05-20T11:26:59;102080.47;;;19.79;47.39
73455;BME280;61690;51.824;6.306;2023-05-20T11:29:25;102082.16;;;19.80;47.79
73455;BME280;61690;51.824;6.306;2023-05-20T11:31:51;102081.22;;;19.81;47.43
73455;BME280;61690;51.824;6.306;2023-05-20T11:34:23;102079.44;;;19.82;47.45
73455;BME280;61690;51.824;6.306;2023-05-20T11:36:55;102080.34;;;19.81;47.53
73455;BME280;61690;51.824;6.306;2023-05-20T11:39:20;102083.75;;;19.83;47.36
73455;BME280;61690;51.824;6.306;2023-05-20T11:41:46;102075.84;;;19.83;47.42
73455;BME280;61690;51.824;6.306;2023-05-20T11:44:12;102076.72;;;19.83;47.41
73455;BME280;61690;51.824;6.306;2023-05-20T11:46:45;102075.78;;;19.84;47.46
73455;BME280;61690;51.824;6.306;2023-05-20T11:49:12;102069.56;;;19.85;47.00
73455;BME280;61690;51.824;6.306;2023-05-20T11:51:38;102072.22;;;19.85;47.39
73455;BME280;61690;51.824;6.306;2023-05-20T11:54:05;102073.06;;;19.86;47.50
73455;BME280;61690;51.824;6.306;2023-05-20T11:56:35;102066.94;;;19.85;47.47
73455;BME280;61690;51.824;6.306;2023-05-20T11:59:08;102066.84;;;19.87;47.40
73455;BME280;61690;51.824;6.306;2023-05-20T12:01:36;102054.50;;;19.87;47.39
73455;BME280;61690;51.824;6.306;2023-05-20T12:04:08;102056.19;;;19.88;47.10
73455;BME280;61690;51.824;6.306;2023-05-20T12:06:34;102045.63;;;19.88;47.30
73455;BME280;61690;51.824;6.306;2023-05-20T12:09:02;102049.03;;;19.90;47.50
73455;BME280;61690;51.824;6.306;2023-05-20T12:11:37;102035.84;;;19.90;47.36
73455;BME280;61690;51.824;6.306;2023-05-20T12:14:05;102032.28;;;19.91;47.30
73455;BME280;61690;51.824;6.306;2023-05-20T12:16:32;102029.63;;;19.91;47.35
73455;BME280;61690;51.824;6.306;2023-05-20T12:18:57;102034.00;;;19.92;47.38
73455;BME280;61690;51.824;6.306;2023-05-20T12:21:22;102028.59;;;19.94;47.42
73455;BME280;61690;51.824;6.306;2023-05-20T12:23:53;102018.91;;;19.94;47.07
73455;BME280;61690;51.824;6.306;2023-05-20T12:26:25;102022.41;;;19.95;46.94
73455;BME280;61690;51.824;6.306;2023-05-20T12:28:51;102018.81;;;19.96;47.19
73455;BME280;61690;51.824;6.306;2023-05-20T12:31:17;102009.13;;;19.96;46.89
73455;BME280;61690;51.824;6.306;2023-05-20T12:33:42;102003.84;;;19.96;46.98
73455;BME280;61690;51.824;6.306;2023-05-20T12:36:11;102003.84;;;19.96;47.27
73455;BME280;61690;51.824;6.306;2023-05-20T12:38:37;102008.16;;;19.97;47.19
73455;BME280;61690;51.824;6.306;2023-05-20T12:41:02;102004.59;;;19.98;46.94
73455;BME280;61690;51.824;6.306;2023-05-20T12:43:27;102001.97;;;19.98;47.37
73455;BME280;61690;51.824;6.306;2023-05-20T12:45:53;102004.59;;;19.98;46.95
73455;BME280;61690;51.824;6.306;2023-05-20T12:48:18;102001.88;;;20.00;47.09
73455;BME280;61690;51.824;6.306;2023-05-20T12:50:49;101997.44;;;20.01;47.28
73455;BME280;61690;51.824;6.306;2023-05-20T12:53:15;101999.13;;;20.02;47.23